Celebrity Infinity — 9HJD9 — position and weather

sailwx.info

Track history (hours):
 
Tides and Currents Weather Stations Pressure Air Temp Water Temp Dewpoint Dewpoint Depression Visibility Wind Speed Wind Dir Waves Ship Positions

Celebrity Infinity

Last reported at 2015-May-30 00:00 UTC. Time now 2015-May-30 06:04 UTC.
Position N 57°06' W 135°18'.

Length 294 m; draft 8.3 m.

Type: Passenger vessel. MMSI: 249048000.

Wind from 270 at 5 knots

Barometer 1020.0 mb
Air temperature 12.0 ° C
Water temperature 10.0 ° C

Date/timePositionNaut miles runAvg speedWind from/ knotsBaromVisibWave heightAir tempDewpointWater temp
2015-May-30 00:00N 57°06' W 135°18'149 9.9 270 / 51020.0 12.0 10.0
2015-May-29 09:00N 54°42' W 134°12'48520.2 350 / 261020.0 12.0 10.0
2015-May-28 09:00N 47°18' W 129°00'4920.3 360 / 221019.0 12.0 10.0
2015-May-28 06:33N 46°33' W 128°31'2120.9
2015-May-28 05:34N 46°14' W 128°19'2120.7
2015-May-28 04:33N 45°55' W 128°07'2420.5
2015-May-28 03:23N 45°33' W 127°53'1820.7
2015-May-28 02:32N 45°17' W 127°43'39121.1
2015-May-27 08:00N 39°18' W 124°12'3015.3 360 / 221016.0 12.0 10.0
2015-May-27 06:04N 38°52' W 123°55'1120.6
2015-May-27 05:33N 38°42' W 123°49'2120.9
2015-May-27 04:33N 38°25' W 123°34'1919.1
2015-May-27 03:33N 38°09' W 123°20'1817.8
2015-May-27 02:34N 37°56' W 123°05'1818.3
2015-May-27 01:33N 37°48' W 122°44'1010.3
2015-May-27 00:34N 37°48' W 122°31'6 5.2
2015-May-26 23:29N 37°48' W 122°24'0 0.0
2015-May-26 22:31N 37°48' W 122°24'0 0.0
2015-May-26 21:13N 37°48' W 122°24'0 0.0
2015-May-26 20:31N 37°48' W 122°24'0 0.0
2015-May-26 19:33N 37°48' W 122°24'0 0.5
2015-May-26 19:00N 37°48' W 122°24'0 0.6 350 / 141017.0 14.0 10.0
2015-May-26 18:33N 37°48' W 122°24'0 0.0
2015-May-26 17:29N 37°48' W 122°24'0 0.0
2015-May-26 16:32N 37°48' W 122°24'0 0.5
2015-May-26 16:00N 37°48' W 122°24'0 0.6 270 / 101017.0 5.4 0.516.0 14.0
2015-May-26 15:28N 37°48' W 122°24'0 0.0
2015-May-26 14:28N 37°48' W 122°24'0 0.0
2015-May-26 13:31N 37°48' W 122°24'3 3.0
2015-May-26 12:33N 37°49' W 122°28'1313.1
2015-May-26 11:33N 37°45' W 122°43'1515.4
2015-May-26 10:34N 37°53' W 123°00'1515.1
2015-May-26 09:34N 38°02' W 123°15'1515.5
2015-May-26 08:33N 38°14' W 123°27'4 7.5
2015-May-26 08:00N 38°18' W 123°30'1125.9 350 / 121016.0 12.0 10.0
2015-May-26 07:33N 38°28' W 123°38'1515.3
2015-May-26 06:33N 38°41' W 123°48'2015.6
2015-May-26 05:16N 38°58' W 124°00'30315.7
2015-May-25 10:00N 44°00' W 124°36'8816.1 360 / 151020.0 14.0 10.0
2015-May-25 04:33N 45°27' W 124°21'1616.5
2015-May-25 03:33N 45°43' W 124°16'1616.0
2015-May-25 02:34N 45°59' W 124°13'1515.1
2015-May-25 01:33N 46°14' W 124°08'1110.8
2015-May-25 00:34N 46°12' W 123°52'1 0.6
2015-May-24 23:31N 46°11' W 123°51'0 0.0
2015-May-24 22:30N 46°11' W 123°51'611.5
2015-May-24 22:00N 46°06' W 123°48'613.5 330 / 91021.0 15.0 12.0
2015-May-24 21:33N 46°11' W 123°51'0 0.0
2015-May-24 20:33N 46°11' W 123°51'0 0.0
2015-May-24 19:32N 46°11' W 123°51'0 0.0
2015-May-24 18:32N 46°11' W 123°51'0 0.0
2015-May-24 17:31N 46°11' W 123°51'0 0.0
2015-May-24 16:31N 46°11' W 123°51'0 0.0
2015-May-24 15:33N 46°11' W 123°51'0 0.0
2015-May-24 14:33N 46°11' W 123°51'9 8.5
2015-May-24 13:33N 46°15' W 124°02'9 8.9
2015-May-24 12:33N 46°15' W 124°15'1919.1
2015-May-24 11:33N 46°31' W 124°30'2019.5
2015-May-24 10:33N 46°46' W 124°48'2019.6
2015-May-24 09:33N 47°04' W 124°58'2419.7
2015-May-24 08:21N 47°27' W 125°10'2319.6
2015-May-24 07:09N 47°49' W 125°22'1319.9
2015-May-24 06:31N 48°01' W 125°23'2119.7
2015-May-24 05:27N 48°21' W 125°10'5216.2
2015-May-24 02:14N 48°17' W 123°52'1217.5
2015-May-24 01:33N 48°15' W 123°34'1111.2
2015-May-24 00:33N 48°24' W 123°24'1 1.2
2015-May-23 23:33N 48°25' W 123°23'0 0.0
2015-May-23 22:33N 48°25' W 123°23'0 0.0
2015-May-23 21:32N 48°25' W 123°23'0 0.0
2015-May-23 20:32N 48°25' W 123°23'0 0.0
2015-May-23 19:31N 48°25' W 123°23'0 0.0
2015-May-23 18:31N 48°25' W 123°23'0 0.0
2015-May-23 17:34N 48°25' W 123°23'0 0.0
2015-May-23 16:33N 48°25' W 123°23'0 0.0
2015-May-23 15:33N 48°25' W 123°23'0 0.0
2015-May-23 14:33N 48°25' W 123°23'5 5.2
2015-May-23 13:33N 48°20' W 123°24'1313.4
2015-May-23 12:33N 48°13' W 123°42'1815.0
2015-May-23 11:23N 48°17' W 124°08'2915.6
2015-May-23 09:33N 48°29' W 124°48'1615.7
2015-May-23 08:33N 48°29' W 125°11'5 8.2
2015-May-23 08:00N 48°30' W 125°18'1125.9 340 / 31018.0 18.0 15.0
2015-May-23 07:33N 48°36' W 125°32'1615.9
2015-May-23 06:33N 48°42' W 125°54'1616.0
2015-May-23 05:33N 48°53' W 126°13'1616.5
2015-May-23 04:33N 49°03' W 126°32'1716.8
2015-May-23 03:33N 49°14' W 126°51'1716.6
2015-May-23 02:33N 49°25' W 127°11'56113.5
2015-May-21 09:00N 57°54' W 133°48'26 2.6 350 / 151018.0 15.0 15.0
2015-May-20 23:00N 58°12' W 134°24'11 0.9 340 / 101020.0 18.0 15.0
2015-May-20 10:00N 58°18' W 134°42'23 3.6 200 / 31020.0 15.0 13.0
2015-May-20 03:32N 58°10' W 135°23'3 3.1
2015-May-20 02:30N 58°08' W 135°28'  
Track history (hours):
 
Tides and Currents Weather Stations Pressure Air Temp Water Temp Dewpoint Dewpoint Depression Visibility Wind Speed Wind Dir Waves Ship Positions

Celebrity Infinity

Last reported at 2015-May-30 00:00 UTC. Time now 2015-May-30 06:04 UTC.
Position N 57°06' W 135°18'.

Length 294 m; draft 8.3 m.

Type: Passenger vessel. MMSI: 249048000.

Wind from 270 at 5 knots

Barometer 1020.0 mb
Air temperature 12.0 ° C
Water temperature 10.0 ° C

Date/timePositionNaut miles runAvg speedWind from/ knotsBaromVisibWave heightAir tempDewpointWater temp
2015-May-30 00:00N 57°06' W 135°18'149 9.9 270 / 51020.0 12.0 10.0
2015-May-29 09:00N 54°42' W 134°12'48520.2 350 / 261020.0 12.0 10.0
2015-May-28 09:00N 47°18' W 129°00'4920.3 360 / 221019.0 12.0 10.0
2015-May-28 06:33N 46°33' W 128°31'2120.9
2015-May-28 05:34N 46°14' W 128°19'2120.7
2015-May-28 04:33N 45°55' W 128°07'2420.5
2015-May-28 03:23N 45°33' W 127°53'1820.7
2015-May-28 02:32N 45°17' W 127°43'39121.1
2015-May-27 08:00N 39°18' W 124°12'3015.3 360 / 221016.0 12.0 10.0
2015-May-27 06:04N 38°52' W 123°55'1120.6
2015-May-27 05:33N 38°42' W 123°49'2120.9
2015-May-27 04:33N 38°25' W 123°34'1919.1
2015-May-27 03:33N 38°09' W 123°20'1817.8
2015-May-27 02:34N 37°56' W 123°05'1818.3
2015-May-27 01:33N 37°48' W 122°44'1010.3
2015-May-27 00:34N 37°48' W 122°31'6 5.2
2015-May-26 23:29N 37°48' W 122°24'0 0.0
2015-May-26 22:31N 37°48' W 122°24'0 0.0
2015-May-26 21:13N 37°48' W 122°24'0 0.0
2015-May-26 20:31N 37°48' W 122°24'0 0.0
2015-May-26 19:33N 37°48' W 122°24'0 0.5
2015-May-26 19:00N 37°48' W 122°24'0 0.6 350 / 141017.0 14.0 10.0
2015-May-26 18:33N 37°48' W 122°24'0 0.0
2015-May-26 17:29N 37°48' W 122°24'0 0.0
2015-May-26 16:32N 37°48' W 122°24'0 0.5
2015-May-26 16:00N 37°48' W 122°24'0 0.6 270 / 101017.0 5.4 0.516.0 14.0
2015-May-26 15:28N 37°48' W 122°24'0 0.0
2015-May-26 14:28N 37°48' W 122°24'0 0.0
2015-May-26 13:31N 37°48' W 122°24'3 3.0
2015-May-26 12:33N 37°49' W 122°28'1313.1
2015-May-26 11:33N 37°45' W 122°43'1515.4
2015-May-26 10:34N 37°53' W 123°00'1515.1
2015-May-26 09:34N 38°02' W 123°15'1515.5
2015-May-26 08:33N 38°14' W 123°27'4 7.5
2015-May-26 08:00N 38°18' W 123°30'1125.9 350 / 121016.0 12.0 10.0
2015-May-26 07:33N 38°28' W 123°38'1515.3
2015-May-26 06:33N 38°41' W 123°48'2015.6
2015-May-26 05:16N 38°58' W 124°00'30315.7
2015-May-25 10:00N 44°00' W 124°36'8816.1 360 / 151020.0 14.0 10.0
2015-May-25 04:33N 45°27' W 124°21'1616.5
2015-May-25 03:33N 45°43' W 124°16'1616.0
2015-May-25 02:34N 45°59' W 124°13'1515.1
2015-May-25 01:33N 46°14' W 124°08'1110.8
2015-May-25 00:34N 46°12' W 123°52'1 0.6
2015-May-24 23:31N 46°11' W 123°51'0 0.0
2015-May-24 22:30N 46°11' W 123°51'611.5
2015-May-24 22:00N 46°06' W 123°48'613.5 330 / 91021.0 15.0 12.0
2015-May-24 21:33N 46°11' W 123°51'0 0.0
2015-May-24 20:33N 46°11' W 123°51'0 0.0
2015-May-24 19:32N 46°11' W 123°51'0 0.0
2015-May-24 18:32N 46°11' W 123°51'0 0.0
2015-May-24 17:31N 46°11' W 123°51'0 0.0
2015-May-24 16:31N 46°11' W 123°51'0 0.0
2015-May-24 15:33N 46°11' W 123°51'0 0.0
2015-May-24 14:33N 46°11' W 123°51'9 8.5
2015-May-24 13:33N 46°15' W 124°02'9 8.9
2015-May-24 12:33N 46°15' W 124°15'1919.1
2015-May-24 11:33N 46°31' W 124°30'2019.5
2015-May-24 10:33N 46°46' W 124°48'2019.6
2015-May-24 09:33N 47°04' W 124°58'2419.7
2015-May-24 08:21N 47°27' W 125°10'2319.6
2015-May-24 07:09N 47°49' W 125°22'1319.9
2015-May-24 06:31N 48°01' W 125°23'2119.7
2015-May-24 05:27N 48°21' W 125°10'5216.2
2015-May-24 02:14N 48°17' W 123°52'1217.5
2015-May-24 01:33N 48°15' W 123°34'1111.2
2015-May-24 00:33N 48°24' W 123°24'1 1.2
2015-May-23 23:33N 48°25' W 123°23'0 0.0
2015-May-23 22:33N 48°25' W 123°23'0 0.0
2015-May-23 21:32N 48°25' W 123°23'0 0.0
2015-May-23 20:32N 48°25' W 123°23'0 0.0
2015-May-23 19:31N 48°25' W 123°23'0 0.0
2015-May-23 18:31N 48°25' W 123°23'0 0.0
2015-May-23 17:34N 48°25' W 123°23'0 0.0
2015-May-23 16:33N 48°25' W 123°23'0 0.0
2015-May-23 15:33N 48°25' W 123°23'0 0.0
2015-May-23 14:33N 48°25' W 123°23'5 5.2
2015-May-23 13:33N 48°20' W 123°24'1313.4
2015-May-23 12:33N 48°13' W 123°42'1815.0
2015-May-23 11:23N 48°17' W 124°08'2915.6
2015-May-23 09:33N 48°29' W 124°48'1615.7
2015-May-23 08:33N 48°29' W 125°11'5 8.2
2015-May-23 08:00N 48°30' W 125°18'1125.9 340 / 31018.0 18.0 15.0
2015-May-23 07:33N 48°36' W 125°32'1615.9
2015-May-23 06:33N 48°42' W 125°54'1616.0
2015-May-23 05:33N 48°53' W 126°13'1616.5
2015-May-23 04:33N 49°03' W 126°32'1716.8
2015-May-23 03:33N 49°14' W 126°51'1716.6
2015-May-23 02:33N 49°25' W 127°11'56113.5
2015-May-21 09:00N 57°54' W 133°48'26 2.6 350 / 151018.0 15.0 15.0
2015-May-20 23:00N 58°12' W 134°24'11 0.9 340 / 101020.0 18.0 15.0
2015-May-20 10:00N 58°18' W 134°42'23 3.6 200 / 31020.0 15.0 13.0
2015-May-20 03:32N 58°10' W 135°23'3 3.1
2015-May-20 02:30N 58°08' W 135°28'  

Dump ship's entire track history